createdAt,value
2022-11-28T00:01:30.849Z,4.55
2022-11-28T00:03:58.483Z,4.53
2022-11-28T00:06:27.035Z,4.51
2022-11-28T00:08:59.571Z,4.51
2022-11-28T00:11:30.782Z,4.48
2022-11-28T00:13:58.285Z,4.48
2022-11-28T00:16:26.087Z,4.47
2022-11-28T00:18:55.848Z,4.42
2022-11-28T00:21:25.704Z,4.41
2022-11-28T00:23:53.597Z,4.38
2022-11-28T00:26:25.353Z,4.39
2022-11-28T00:28:54.322Z,4.39
2022-11-28T00:31:25.100Z,4.39
2022-11-28T00:33:53.122Z,4.39
2022-11-28T00:36:21.306Z,4.40
2022-11-28T00:38:49.725Z,4.39
2022-11-28T00:41:19.201Z,4.38
2022-11-28T00:43:48.544Z,4.37
2022-11-28T00:46:18.473Z,4.36
2022-11-28T00:48:46.898Z,4.35
2022-11-28T00:51:16.625Z,4.35
2022-11-28T00:53:47.861Z,4.33
2022-11-28T00:56:17.199Z,4.30
2022-11-28T00:58:45.178Z,4.30
2022-11-28T01:01:15.231Z,4.29
2022-11-28T01:03:44.359Z,4.27
2022-11-28T01:06:13.015Z,4.26
2022-11-28T01:08:40.576Z,4.24
2022-11-28T01:11:12.927Z,4.24
2022-11-28T01:13:41.342Z,4.23
2022-11-28T01:16:10.157Z,4.20
2022-11-28T01:18:38.507Z,4.18
2022-11-28T01:21:08.760Z,4.17
2022-11-28T01:23:36.422Z,4.17
2022-11-28T01:26:07.599Z,4.17
2022-11-28T01:28:37.682Z,4.14
2022-11-28T01:31:08.643Z,4.13
2022-11-28T01:33:36.915Z,4.11
2022-11-28T01:36:04.877Z,4.11
2022-11-28T01:38:35.372Z,4.09
2022-11-28T01:41:03.662Z,4.08
2022-11-28T01:43:31.729Z,4.08
2022-11-28T01:45:59.176Z,4.06
2022-11-28T01:48:28.826Z,4.09
2022-11-28T01:50:59.524Z,4.07
2022-11-28T01:53:29.519Z,4.06
2022-11-28T01:56:02.704Z,4.06
2022-11-28T01:58:33.622Z,4.05
2022-11-28T02:01:01.675Z,4.02
2022-11-28T02:03:34.416Z,4.00
2022-11-28T02:06:01.850Z,4.01
2022-11-28T02:08:33.398Z,4.01
2022-11-28T02:11:21.016Z,4.00
2022-11-28T02:13:59.314Z,4.01
2022-11-28T02:16:42.881Z,4.00
2022-11-28T02:19:37.321Z,3.99
2022-11-28T02:22:13.820Z,3.98
2022-11-28T02:25:04.155Z,3.97
2022-11-28T02:27:59.183Z,3.96
2022-11-28T02:30:31.279Z,3.96
2022-11-28T02:33:10.553Z,3.93
2022-11-28T02:35:48.152Z,3.92
2022-11-28T02:38:23.207Z,3.92
2022-11-28T02:41:00.662Z,3.93
2022-11-28T02:43:34.214Z,3.95
2022-11-28T02:46:07.724Z,3.95
2022-11-28T02:48:41.660Z,3.94
2022-11-28T02:51:13.851Z,3.94
2022-11-28T02:53:44.245Z,3.94
2022-11-28T02:56:13.505Z,3.96
2022-11-28T02:58:40.970Z,3.96
2022-11-28T03:01:18.083Z,3.94
2022-11-28T03:03:56.117Z,3.93
2022-11-28T03:06:37.005Z,3.95
2022-11-28T03:09:22.497Z,3.94
2022-11-28T03:11:59.581Z,3.91
2022-11-28T03:14:39.893Z,3.90
2022-11-28T03:17:19.678Z,3.89
2022-11-28T03:19:58.367Z,3.89
2022-11-28T03:22:31.405Z,3.88
2022-11-28T03:25:10.120Z,3.86
2022-11-28T03:27:44.693Z,3.85
2022-11-28T03:30:19.423Z,3.85
2022-11-28T03:32:51.014Z,3.85
2022-11-28T03:35:23.375Z,3.84
2022-11-28T03:37:55.753Z,3.84
2022-11-28T03:40:27.373Z,3.84
2022-11-28T03:42:59.978Z,3.85
2022-11-28T03:45:30.122Z,3.86
2022-11-28T03:48:01.817Z,3.85
2022-11-28T03:50:35.938Z,3.85
2022-11-28T03:53:08.239Z,3.86
2022-11-28T03:55:42.505Z,3.85
2022-11-28T03:58:14.288Z,3.85
2022-11-28T04:00:52.439Z,3.85
2022-11-28T04:03:28.456Z,3.84
2022-11-28T04:06:02.915Z,3.83
2022-11-28T04:08:35.418Z,3.84
2022-11-28T04:11:08.606Z,3.84
2022-11-28T04:13:42.069Z,3.83
2022-11-28T04:16:14.906Z,3.84
2022-11-28T04:18:53.454Z,3.82
2022-11-28T04:21:28.449Z,3.81
2022-11-28T04:24:01.232Z,3.80
2022-11-28T04:26:33.227Z,3.79
2022-11-28T04:29:04.382Z,3.80
2022-11-28T04:31:33.637Z,3.81
2022-11-28T04:34:06.858Z,3.81
2022-11-28T04:36:38.726Z,3.82
2022-11-28T04:39:13.804Z,3.81
2022-11-28T04:41:45.810Z,3.81
2022-11-28T04:44:16.413Z,3.81
2022-11-28T04:46:47.195Z,3.80
2022-11-28T04:49:15.569Z,3.79
2022-11-28T04:51:50.554Z,3.78
2022-11-28T04:54:23.778Z,3.76
2022-11-28T04:56:57.958Z,3.77
2022-11-28T04:59:27.949Z,3.76
2022-11-28T05:01:58.336Z,3.78
2022-11-28T05:04:25.928Z,3.78
2022-11-28T05:07:02.246Z,3.76
2022-11-28T05:09:29.742Z,3.77
2022-11-28T05:11:57.341Z,3.76
2022-11-28T05:14:24.866Z,3.75
2022-11-28T05:16:52.777Z,3.75
2022-11-28T05:19:20.484Z,3.74
2022-11-28T05:21:47.973Z,3.74
2022-11-28T05:24:16.691Z,3.73
2022-11-28T05:26:44.262Z,3.73
2022-11-28T05:29:11.871Z,3.74
2022-11-28T05:31:39.463Z,3.74
2022-11-28T05:34:06.985Z,3.76
2022-11-28T05:36:34.555Z,3.77
2022-11-28T05:39:02.032Z,3.76
2022-11-28T05:41:32.152Z,3.75
2022-11-28T05:44:00.852Z,3.75
2022-11-28T05:46:29.760Z,3.74
2022-11-28T05:48:57.891Z,3.75
2022-11-28T05:51:25.696Z,3.75
2022-11-28T05:53:53.153Z,3.75
2022-11-28T05:56:23.382Z,3.75
2022-11-28T05:58:53.579Z,3.73
2022-11-28T06:01:22.696Z,3.73
2022-11-28T06:03:50.478Z,3.75
2022-11-28T06:06:21.337Z,3.76
2022-11-28T06:08:51.523Z,3.76
2022-11-28T06:11:19.891Z,3.76
2022-11-28T06:13:48.999Z,3.76
2022-11-28T06:16:20.477Z,3.77
2022-11-28T06:18:48.174Z,3.75
2022-11-28T06:21:16.493Z,3.77
2022-11-28T06:23:44.173Z,3.77
2022-11-28T06:26:13.846Z,3.77
2022-11-28T06:28:41.770Z,3.76
2022-11-28T06:31:11.847Z,3.74
2022-11-28T06:33:40.739Z,3.72
2022-11-28T06:36:09.449Z,3.72
2022-11-28T06:38:37.103Z,3.71
2022-11-28T06:41:06.840Z,3.68
2022-11-28T06:43:34.502Z,3.67
2022-11-28T06:46:02.658Z,3.68
2022-11-28T06:48:30.301Z,3.69
2022-11-28T06:51:04.823Z,3.68
2022-11-28T06:53:32.567Z,3.68
2022-11-28T06:56:05.469Z,3.66
2022-11-28T06:58:32.909Z,3.69
2022-11-28T07:01:07.022Z,3.68
2022-11-28T07:03:34.999Z,3.68
2022-11-28T07:06:06.223Z,3.68
2022-11-28T07:08:34.655Z,3.65
2022-11-28T07:11:09.585Z,3.64
2022-11-28T07:13:37.650Z,3.65
2022-11-28T07:16:06.975Z,3.64
2022-11-28T07:18:35.716Z,3.65
2022-11-28T07:21:04.794Z,3.66
2022-11-28T07:23:32.323Z,3.64
2022-11-28T07:26:00.662Z,3.61
2022-11-28T07:28:28.313Z,3.63
2022-11-28T07:31:01.708Z,3.65
2022-11-28T07:33:31.674Z,3.67
2022-11-28T07:36:06.673Z,3.67
2022-11-28T07:38:36.151Z,3.68
2022-11-28T07:41:06.419Z,3.68
2022-11-28T07:43:35.138Z,3.71
2022-11-28T07:46:06.706Z,3.71
2022-11-28T07:48:35.110Z,3.72
2022-11-28T07:51:13.031Z,3.72
2022-11-28T07:53:44.591Z,3.72
2022-11-28T07:56:15.451Z,3.73
2022-11-28T07:58:45.242Z,3.74
2022-11-28T08:01:22.529Z,3.71
2022-11-28T08:03:57.092Z,3.73
2022-11-28T08:06:28.515Z,3.73
2022-11-28T08:08:59.040Z,3.73
2022-11-28T08:11:30.190Z,3.73
2022-11-28T08:14:00.497Z,3.71
2022-11-28T08:16:32.286Z,3.69
2022-11-28T08:19:02.429Z,3.68
2022-11-28T08:21:35.831Z,3.69
2022-11-28T08:24:05.420Z,3.70
2022-11-28T08:26:34.869Z,3.74
2022-11-28T08:29:04.192Z,3.78
2022-11-28T08:31:34.214Z,3.80
2022-11-28T08:34:07.550Z,3.82
2022-11-28T08:36:37.339Z,3.84
2022-11-28T08:41:57.521Z,3.90
2022-11-28T08:44:26.808Z,3.94
2022-11-28T08:46:56.709Z,3.95
2022-11-28T08:49:25.118Z,3.97
2022-11-28T08:51:54.477Z,4.01
2022-11-28T08:54:22.311Z,4.06
2022-11-28T08:56:50.205Z,4.12
2022-11-28T08:59:19.707Z,4.15
2022-11-28T09:01:47.962Z,4.20
2022-11-28T09:04:16.888Z,4.25
2022-11-28T09:06:46.080Z,4.31
2022-11-28T09:09:16.764Z,4.37
2022-11-28T09:11:46.155Z,4.39
2022-11-28T09:14:25.545Z,4.41
2022-11-28T09:16:56.199Z,4.43
2022-11-28T09:19:26.771Z,4.49
2022-11-28T09:21:57.634Z,4.54
2022-11-28T09:24:27.562Z,4.59
2022-11-28T09:26:55.445Z,4.63
2022-11-28T09:29:22.993Z,4.67
2022-11-28T09:31:51.442Z,4.71
2022-11-28T09:34:21.767Z,4.75
2022-11-28T09:36:50.610Z,4.76
2022-11-28T09:39:18.394Z,4.79
2022-11-28T09:42:00.938Z,4.82
2022-11-28T09:44:38.325Z,4.87
2022-11-28T09:47:13.487Z,4.89
2022-11-28T09:49:46.346Z,4.90
2022-11-28T09:52:27.890Z,4.91
2022-11-28T09:55:05.093Z,4.91
2022-11-28T09:57:39.937Z,4.95
2022-11-28T10:00:16.750Z,4.99
2022-11-28T10:02:55.969Z,5.04
2022-11-28T10:05:34.494Z,5.11
2022-11-28T10:08:22.588Z,5.17
2022-11-28T10:11:03.699Z,5.20
2022-11-28T10:14:06.724Z,5.24
2022-11-28T10:16:46.455Z,5.25
2022-11-28T10:19:46.550Z,5.27
2022-11-28T10:22:10.573Z,5.26
2022-11-28T10:24:47.871Z,5.27
2022-11-28T10:27:25.426Z,5.28
2022-11-28T10:30:03.039Z,5.29
2022-11-28T10:32:36.564Z,5.30
2022-11-28T10:35:09.827Z,5.32
2022-11-28T10:37:42.537Z,5.37
2022-11-28T10:40:19.524Z,5.41
2022-11-28T10:42:53.250Z,5.43
2022-11-28T10:45:29.247Z,5.47
2022-11-28T10:48:37.983Z,5.46
2022-11-28T10:51:08.988Z,5.52
2022-11-28T10:53:47.905Z,5.56
2022-11-28T10:56:30.174Z,5.57
2022-11-28T10:59:06.344Z,5.57
2022-11-28T11:01:42.031Z,5.57
2022-11-28T11:04:19.364Z,5.61
2022-11-28T11:07:08.829Z,5.66
2022-11-28T11:09:39.367Z,5.67
2022-11-28T11:12:14.342Z,5.68
2022-11-28T11:14:41.874Z,5.70
2022-11-28T11:17:25.599Z,5.71
2022-11-28T11:19:54.953Z,5.72
2022-11-28T11:22:24.736Z,5.76
2022-11-28T11:25:16.189Z,5.78
2022-11-28T11:27:55.101Z,5.82
2022-11-28T11:30:28.888Z,5.82
2022-11-28T11:33:02.995Z,5.83
2022-11-28T11:35:36.228Z,5.87
2022-11-28T11:38:18.202Z,5.88
2022-11-28T11:40:48.195Z,5.87
2022-11-28T11:43:28.310Z,5.88
2022-11-28T11:46:07.636Z,5.89
2022-11-28T11:48:39.305Z,5.93
2022-11-28T11:51:08.379Z,5.95
2022-11-28T11:53:36.102Z,5.99
2022-11-28T11:56:04.561Z,6.07
2022-11-28T11:58:44.229Z,6.09
2022-11-28T12:01:15.040Z,6.11
2022-11-28T12:03:53.793Z,6.11
2022-11-28T12:06:31.236Z,6.10
2022-11-28T12:09:11.293Z,6.08
2022-11-28T12:11:47.132Z,6.09
2022-11-28T12:14:30.384Z,6.07
2022-11-28T12:17:40.566Z,6.05
2022-11-28T12:20:23.432Z,6.03
2022-11-28T12:23:02.288Z,6.05
2022-11-28T12:25:39.293Z,6.07
2022-11-28T12:28:23.198Z,6.07
2022-11-28T12:31:05.693Z,6.06
2022-11-28T12:33:52.460Z,6.04
2022-11-28T12:36:36.799Z,6.01
2022-11-28T12:39:21.049Z,6.00
2022-11-28T12:45:21.387Z,5.93
2022-11-28T12:48:02.844Z,5.90
2022-11-28T12:50:36.971Z,5.88
2022-11-28T12:53:33.717Z,5.86
2022-11-28T12:56:12.325Z,5.87
2022-11-28T12:58:44.822Z,5.85
2022-11-28T13:01:34.669Z,5.81
2022-11-28T13:04:10.678Z,5.81
2022-11-28T13:06:50.570Z,5.82
2022-11-28T13:09:31.368Z,5.83
2022-11-28T13:12:15.833Z,5.85
2022-11-28T13:14:52.303Z,5.85
2022-11-28T13:17:39.219Z,5.87
2022-11-28T13:20:19.570Z,5.86
2022-11-28T13:23:04.745Z,5.86
2022-11-28T13:26:01.626Z,5.84
2022-11-28T13:28:41.348Z,5.81
2022-11-28T13:31:24.094Z,5.78
2022-11-28T13:33:54.874Z,5.76
2022-11-28T13:39:35.631Z,5.71
2022-11-28T13:42:59.549Z,5.68
2022-11-28T13:45:28.375Z,5.66
2022-11-28T13:48:01.239Z,5.66
2022-11-28T13:50:39.854Z,5.65
2022-11-28T13:53:26.048Z,5.62
2022-11-28T13:56:13.271Z,5.59
2022-11-28T13:58:52.234Z,5.58
2022-11-28T14:01:22.760Z,5.56
2022-11-28T14:04:01.755Z,5.57
2022-11-28T14:06:31.664Z,5.56
2022-11-28T14:09:07.938Z,5.53
2022-11-28T14:11:52.185Z,5.52
2022-11-28T14:14:44.431Z,5.50
2022-11-28T14:17:39.712Z,5.47
2022-11-28T14:20:23.893Z,5.43
2022-11-28T14:23:08.219Z,5.40
2022-11-28T14:25:46.138Z,5.37
2022-11-28T14:28:25.067Z,5.33
2022-11-28T14:31:19.239Z,5.27
2022-11-28T14:33:53.260Z,5.25
2022-11-28T14:39:35.650Z,5.19
2022-11-28T14:52:39.640Z,4.98
2022-11-28T14:58:07.448Z,4.91
2022-11-28T15:03:59.220Z,4.87
2022-11-28T15:06:48.739Z,4.86
2022-11-28T15:09:26.052Z,4.84
2022-11-28T15:12:12.641Z,4.81
2022-11-28T15:14:43.950Z,4.76
2022-11-28T15:20:22.906Z,4.71
2022-11-28T15:22:53.213Z,4.66
2022-11-28T15:25:38.691Z,4.62
2022-11-28T15:28:21.557Z,4.61
2022-11-28T15:30:55.006Z,4.59
2022-11-28T15:33:23.948Z,4.57
2022-11-28T15:35:58.671Z,4.56
2022-11-28T15:38:28.481Z,4.55
2022-11-28T15:40:58.431Z,4.54
2022-11-28T15:43:26.435Z,4.54
2022-11-28T15:45:58.584Z,4.51
2022-11-28T15:48:39.035Z,4.51
2022-11-28T15:51:09.212Z,4.50
2022-11-28T15:53:42.189Z,4.48
2022-11-28T15:56:13.688Z,4.48
2022-11-28T15:58:42.823Z,4.49
2022-11-28T16:01:14.615Z,4.47
2022-11-28T16:03:50.674Z,4.45
2022-11-28T16:06:19.925Z,4.42
2022-11-28T16:08:52.708Z,4.41
2022-11-28T16:11:24.025Z,4.40
2022-11-28T16:13:52.776Z,4.39
2022-11-28T16:16:23.486Z,4.37
2022-11-28T16:18:57.501Z,4.36
2022-11-28T16:21:29.223Z,4.34
2022-11-28T16:23:57.054Z,4.32
2022-11-28T16:26:35.381Z,4.29
2022-11-28T16:29:13.776Z,4.27
2022-11-28T16:31:41.849Z,4.27
2022-11-28T16:34:13.562Z,4.25
2022-11-28T16:36:42.576Z,4.25
2022-11-28T16:39:16.419Z,4.23
2022-11-28T16:41:51.994Z,4.24
2022-11-28T16:44:22.234Z,4.26
2022-11-28T16:46:52.897Z,4.24
2022-11-28T16:49:36.824Z,4.22
2022-11-28T16:52:52.203Z,4.21
2022-11-28T16:55:39.659Z,4.19
2022-11-28T16:58:14.390Z,4.20
2022-11-28T17:00:44.960Z,4.18
2022-11-28T17:03:46.934Z,4.14
2022-11-28T17:06:36.921Z,4.15
2022-11-28T17:09:06.678Z,4.14
2022-11-28T17:11:37.252Z,4.15
2022-11-28T17:14:13.098Z,4.13
2022-11-28T17:16:42.017Z,4.11
2022-11-28T17:19:09.676Z,4.10
2022-11-28T17:21:40.259Z,4.08
2022-11-28T17:24:15.838Z,4.07
2022-11-28T17:26:43.271Z,4.05
2022-11-28T17:29:14.668Z,4.05
2022-11-28T17:31:43.065Z,4.05
2022-11-28T17:34:15.812Z,4.04
2022-11-28T17:36:43.340Z,4.04
2022-11-28T17:39:11.164Z,4.02
2022-11-28T17:41:38.754Z,4.03
2022-11-28T17:44:06.613Z,4.03
2022-11-28T17:46:35.368Z,4.02
2022-11-28T17:49:03.519Z,4.04
2022-11-28T17:51:31.069Z,4.03
2022-11-28T17:53:58.545Z,4.05
2022-11-28T17:56:26.907Z,4.06
2022-11-28T17:58:54.391Z,4.09
2022-11-28T18:01:27.376Z,4.08
2022-11-28T18:04:00.239Z,4.07
2022-11-28T18:06:28.008Z,4.06
2022-11-28T18:08:55.446Z,4.05
2022-11-28T18:11:23.495Z,4.04
2022-11-28T18:13:50.913Z,4.04
2022-11-28T18:16:21.517Z,4.02
2022-11-28T18:18:49.441Z,4.02
2022-11-28T18:21:18.663Z,4.02
2022-11-28T18:23:49.330Z,4.02
2022-11-28T18:26:20.913Z,4.00
2022-11-28T18:28:48.456Z,4.01
2022-11-28T18:31:18.250Z,4.00
2022-11-28T18:33:47.565Z,4.00
2022-11-28T18:36:19.050Z,3.99
2022-11-28T18:38:46.919Z,3.98
2022-11-28T18:41:16.437Z,3.99
2022-11-28T18:43:48.303Z,3.98
2022-11-28T18:46:18.968Z,3.99
2022-11-28T18:48:47.955Z,4.00
2022-11-28T18:51:19.263Z,3.98
2022-11-28T18:53:48.177Z,4.00
2022-11-28T18:56:15.966Z,4.00
2022-11-28T18:58:45.178Z,4.00
2022-11-28T19:01:13.986Z,3.98
2022-11-28T19:03:42.346Z,3.97
2022-11-28T19:06:12.485Z,3.99
2022-11-28T19:08:41.977Z,4.00
2022-11-28T19:11:13.103Z,3.99
2022-11-28T19:13:42.298Z,4.00
2022-11-28T19:16:12.580Z,4.00
2022-11-28T19:18:41.067Z,4.02
2022-11-28T19:21:11.356Z,4.01
2022-11-28T19:23:39.435Z,4.01
2022-11-28T19:26:13.983Z,4.01
2022-11-28T19:28:42.808Z,3.98
2022-11-28T19:31:15.020Z,3.97
2022-11-28T19:33:44.725Z,3.96
2022-11-28T19:36:17.032Z,3.96
2022-11-28T19:38:45.695Z,3.95
2022-11-28T19:41:16.431Z,3.93
2022-11-28T19:43:44.573Z,3.93
2022-11-28T19:46:13.093Z,3.92
2022-11-28T19:48:41.765Z,3.93
2022-11-28T19:51:10.581Z,3.93
2022-11-28T19:53:40.546Z,3.93
2022-11-28T19:56:10.163Z,3.94
2022-11-28T19:58:39.720Z,3.94
2022-11-28T20:01:08.885Z,3.95
2022-11-28T20:03:37.717Z,3.95
2022-11-28T20:06:08.838Z,3.95
2022-11-28T20:08:37.680Z,3.96
2022-11-28T20:11:10.199Z,3.96
2022-11-28T20:13:39.242Z,3.97
2022-11-28T20:16:08.803Z,3.96
2022-11-28T20:18:37.241Z,3.95
2022-11-28T20:21:07.116Z,3.94
2022-11-28T20:23:34.937Z,3.94
2022-11-28T20:26:04.600Z,3.94
2022-11-28T20:28:34.101Z,3.94
2022-11-28T20:31:04.099Z,3.95
2022-11-28T20:33:33.655Z,3.94
2022-11-28T20:36:09.027Z,3.94
2022-11-28T20:38:37.024Z,3.95
2022-11-28T20:41:06.618Z,3.95
2022-11-28T20:43:36.565Z,3.95
2022-11-28T20:46:07.753Z,3.94
2022-11-28T20:48:35.651Z,3.95
2022-11-28T20:51:03.207Z,3.95
2022-11-28T20:53:32.286Z,3.96
2022-11-28T20:56:01.419Z,3.96
2022-11-28T20:58:29.832Z,3.95
2022-11-28T21:00:58.953Z,3.95
2022-11-28T21:03:28.206Z,3.95
2022-11-28T21:06:00.851Z,3.95
2022-11-28T21:08:30.481Z,3.94
2022-11-28T21:10:58.311Z,3.94
2022-11-28T21:13:25.906Z,3.95
2022-11-28T21:15:54.379Z,3.93
2022-11-28T21:18:21.933Z,3.92
2022-11-28T21:20:52.836Z,3.92
2022-11-28T21:23:20.340Z,3.92
2022-11-28T21:25:47.813Z,3.92
2022-11-28T21:28:16.178Z,3.92
2022-11-28T21:30:45.617Z,3.91
2022-11-28T21:33:13.952Z,3.93
2022-11-28T21:35:41.748Z,3.92
2022-11-28T21:38:11.266Z,3.91
2022-11-28T21:40:38.689Z,3.92
2022-11-28T21:43:06.248Z,3.92
2022-11-28T21:45:34.654Z,3.93
2022-11-28T21:48:03.293Z,3.92
2022-11-28T21:50:31.002Z,3.92
2022-11-28T21:52:58.533Z,3.91
2022-11-28T21:55:27.511Z,3.90
2022-11-28T21:57:55.200Z,3.90
2022-11-28T22:00:51.602Z,3.91
2022-11-28T22:03:14.358Z,3.92
2022-11-28T22:05:42.289Z,3.92
2022-11-28T22:08:10.724Z,3.94
2022-11-28T22:10:39.666Z,3.93
2022-11-28T22:13:07.117Z,3.93
2022-11-28T22:15:34.898Z,3.94
2022-11-28T22:18:03.771Z,3.94
2022-11-28T22:20:31.274Z,3.94
2022-11-28T22:22:58.808Z,3.95
2022-11-28T22:25:26.281Z,3.95
2022-11-28T22:27:55.134Z,3.95
2022-11-28T22:30:22.906Z,3.97
2022-11-28T22:32:51.441Z,3.96
2022-11-28T22:35:19.018Z,3.96
2022-11-28T22:37:46.698Z,3.96
2022-11-28T22:40:16.124Z,3.95
2022-11-28T22:42:43.624Z,3.96
2022-11-28T22:45:13.150Z,3.95
2022-11-28T22:47:40.641Z,3.95
2022-11-28T22:50:09.160Z,3.96
2022-11-28T22:52:36.584Z,3.94
2022-11-28T22:55:04.242Z,3.96
2022-11-28T22:57:32.312Z,3.97
2022-11-28T22:59:59.775Z,3.95
2022-11-28T23:02:29.537Z,3.95
2022-11-28T23:04:57.656Z,3.96
2022-11-28T23:07:25.748Z,3.95
2022-11-28T23:09:53.483Z,3.94
2022-11-28T23:12:20.965Z,3.92
2022-11-28T23:14:51.502Z,3.92
2022-11-28T23:17:19.514Z,3.92
2022-11-28T23:19:49.038Z,3.91
2022-11-28T23:22:17.050Z,3.90
2022-11-28T23:24:45.692Z,3.88
2022-11-28T23:27:13.469Z,3.85
2022-11-28T23:29:41.138Z,3.86
2022-11-28T23:32:08.750Z,3.87
2022-11-28T23:34:36.297Z,3.87
2022-11-28T23:37:05.017Z,3.88
2022-11-28T23:39:32.502Z,3.88
2022-11-28T23:42:05.124Z,3.87
2022-11-28T23:44:32.591Z,3.87
2022-11-28T23:47:00.111Z,3.86
2022-11-28T23:49:27.561Z,3.84
2022-11-28T23:51:54.977Z,3.84
2022-11-28T23:54:23.802Z,3.82
2022-11-28T23:56:51.268Z,3.82
2022-11-28T23:59:18.818Z,3.81
